createdAt,value
2019-06-01T00:02:30.076Z,51.20
2019-06-01T00:07:33.484Z,51.20
2019-06-01T00:12:36.929Z,51.20
2019-06-01T00:17:40.375Z,51.10
2019-06-01T00:22:43.809Z,51.20
2019-06-01T00:27:47.254Z,51.10
2019-06-01T00:32:51.316Z,51.10
2019-06-01T00:37:54.882Z,51.10
2019-06-01T00:42:58.352Z,51.00
2019-06-01T00:48:01.817Z,51.10
2019-06-01T00:53:05.262Z,51.00
2019-06-01T00:58:08.699Z,51.00
2019-06-01T01:03:12.146Z,51.00
2019-06-01T01:08:15.590Z,51.00
2019-06-01T01:13:20.671Z,51.00
2019-06-01T01:18:24.119Z,50.90
2019-06-01T01:23:27.573Z,51.00
2019-06-01T01:28:31.070Z,50.90
2019-06-01T01:33:34.522Z,51.10
2019-06-01T01:38:37.967Z,51.40
2019-06-01T01:43:41.400Z,51.70
2019-06-01T01:48:44.841Z,51.90
2019-06-01T01:53:48.281Z,52.10
2019-06-01T01:58:52.295Z,52.20
2019-06-01T02:03:57.270Z,52.40
2019-06-01T02:09:01.753Z,52.50
2019-06-01T02:14:05.422Z,52.50
2019-06-01T02:19:08.895Z,52.60
2019-06-01T02:24:12.356Z,52.70
2019-06-01T02:29:15.825Z,52.70
2019-06-01T02:34:19.299Z,52.80
2019-06-01T02:39:22.855Z,52.80
2019-06-01T02:44:26.324Z,52.80
2019-06-01T02:49:29.794Z,52.90
2019-06-01T02:54:33.257Z,52.90
2019-06-01T02:59:36.719Z,53.00
2019-06-01T03:04:40.184Z,53.00
2019-06-01T03:09:43.662Z,52.80
2019-06-01T03:14:47.126Z,52.70
2019-06-01T03:19:51.044Z,52.60
2019-06-01T03:24:54.790Z,52.50
2019-06-01T03:29:58.347Z,52.50
2019-06-01T03:35:02.891Z,52.40
2019-06-01T03:40:18.394Z,52.30
2019-06-01T03:45:13.133Z,52.20
2019-06-01T03:50:16.648Z,52.20
2019-06-01T03:55:20.130Z,52.10
2019-06-01T04:00:23.598Z,52.10
2019-06-01T04:05:27.061Z,52.10
2019-06-01T04:10:30.536Z,52.10
2019-06-01T04:15:34.382Z,52.00
2019-06-01T04:20:37.914Z,52.00
2019-06-01T04:25:41.412Z,52.00
2019-06-01T04:30:44.965Z,52.00
2019-06-01T04:35:48.391Z,51.90
2019-06-01T04:40:51.839Z,51.90
2019-06-01T04:45:55.346Z,52.00
2019-06-01T04:50:58.828Z,51.90
2019-06-01T04:56:02.367Z,51.90
2019-06-01T05:01:06.788Z,51.90
2019-06-01T05:06:11.339Z,51.90
2019-06-01T05:11:15.693Z,51.80
2019-06-01T05:16:19.256Z,51.80
2019-06-01T05:21:22.728Z,51.80
2019-06-01T05:26:26.270Z,51.70
2019-06-01T05:31:29.717Z,51.70
2019-06-01T05:36:33.161Z,51.70
2019-06-01T05:41:36.610Z,51.70
2019-06-01T05:46:40.045Z,52.30
2019-06-01T05:51:43.475Z,51.60
2019-06-01T05:56:46.916Z,51.70
2019-06-01T06:01:50.397Z,51.80
2019-06-01T06:06:53.881Z,51.80
2019-06-01T06:11:57.346Z,51.90
2019-06-01T06:17:00.798Z,51.80
2019-06-01T06:22:04.228Z,51.90
2019-06-01T06:27:07.663Z,51.80
2019-06-01T06:32:11.102Z,51.80
2019-06-01T06:37:15.549Z,51.80
2019-06-01T06:42:20.251Z,51.80
2019-06-01T06:47:25.021Z,52.40
2019-06-01T06:52:28.599Z,52.40
2019-06-01T06:57:32.114Z,53.20
2019-06-01T07:02:35.540Z,53.10
2019-06-01T07:07:39.044Z,53.30
2019-06-01T07:12:42.489Z,53.20
2019-06-01T07:17:45.960Z,53.00
2019-06-01T07:22:49.392Z,53.20
2019-06-01T07:27:53.658Z,53.20
2019-06-01T07:32:57.129Z,53.10
2019-06-01T07:38:00.601Z,53.00
2019-06-01T07:43:04.073Z,53.00
2019-06-01T07:48:07.547Z,52.90
2019-06-01T07:53:11.016Z,53.00
2019-06-01T07:58:14.491Z,53.00
2019-06-01T08:03:17.953Z,53.10
2019-06-01T08:08:22.240Z,53.30
2019-06-01T08:13:31.589Z,53.20
2019-06-01T08:18:32.273Z,53.10
2019-06-01T08:23:35.798Z,53.10
2019-06-01T08:28:39.272Z,53.20
2019-06-01T08:33:42.744Z,53.10
2019-06-01T08:38:46.216Z,53.30
2019-06-01T08:43:49.753Z,53.10
2019-06-01T08:48:53.219Z,53.00
2019-06-01T08:53:56.673Z,53.10
2019-06-01T08:59:00.126Z,53.50
2019-06-01T09:04:03.613Z,53.20
2019-06-01T09:09:11.493Z,53.20
2019-06-01T09:14:13.041Z,53.30
2019-06-01T09:19:16.471Z,52.70
2019-06-01T09:24:19.959Z,53.00
2019-06-01T09:29:23.418Z,52.90
2019-06-01T09:34:28.307Z,53.00
2019-06-01T09:39:33.076Z,53.10
2019-06-01T09:44:37.354Z,53.20
2019-06-01T09:49:40.931Z,53.20
2019-06-01T09:54:44.397Z,53.20
2019-06-01T09:59:47.871Z,53.20
2019-06-01T10:04:51.346Z,53.20
2019-06-01T10:09:54.825Z,53.30
2019-06-01T10:14:58.285Z,53.30
2019-06-01T10:20:01.817Z,53.40
2019-06-01T10:25:08.289Z,53.10
2019-06-01T10:30:11.731Z,53.10
2019-06-01T10:35:15.237Z,53.00
2019-06-01T10:40:18.682Z,52.90
2019-06-01T10:45:22.117Z,53.40
2019-06-01T10:50:25.549Z,52.90
2019-06-01T10:55:28.993Z,52.90
2019-06-01T11:00:38.691Z,53.00
2019-06-01T11:05:38.840Z,52.80
2019-06-01T11:10:43.269Z,52.60
2019-06-01T11:15:46.771Z,52.60
2019-06-01T11:20:50.214Z,52.60
2019-06-01T11:25:53.662Z,52.80
2019-06-01T11:30:57.102Z,52.70
2019-06-01T11:36:00.557Z,52.70
2019-06-01T11:41:03.992Z,52.90
2019-06-01T11:46:07.432Z,52.70
2019-06-01T11:51:10.886Z,52.70
2019-06-01T11:56:14.318Z,52.60
2019-06-01T12:01:17.762Z,52.50
2019-06-01T12:06:21.204Z,52.40
2019-06-01T12:11:24.650Z,52.30
2019-06-01T12:16:28.099Z,52.20
2019-06-01T12:21:31.542Z,52.30
2019-06-01T12:26:34.987Z,52.20
2019-06-01T12:31:39.569Z,52.30
2019-06-01T12:36:44.525Z,52.60
2019-06-01T12:41:48.125Z,52.60
2019-06-01T12:46:51.570Z,52.40
2019-06-01T12:51:55.022Z,52.70
2019-06-01T12:56:58.457Z,52.80
2019-06-01T13:02:01.902Z,52.70
2019-06-01T13:07:05.416Z,52.50
2019-06-01T13:12:08.847Z,52.40
2019-06-01T13:17:12.321Z,52.60
2019-06-01T13:22:15.766Z,52.50
2019-06-01T13:27:19.245Z,52.50
2019-06-01T13:32:22.720Z,52.80
2019-06-01T13:37:26.171Z,52.60
2019-06-01T13:42:29.655Z,52.70
2019-06-01T13:47:33.113Z,52.50
2019-06-01T13:52:36.576Z,52.30
2019-06-01T13:57:40.047Z,52.20
2019-06-01T14:02:47.656Z,52.10
2019-06-01T14:07:49.499Z,52.00
2019-06-01T14:12:53.499Z,51.90
2019-06-01T14:17:57.050Z,52.00
2019-06-01T14:23:00.526Z,51.90
2019-06-01T14:28:03.995Z,51.80
2019-06-01T14:33:07.442Z,51.70
2019-06-01T14:38:10.966Z,51.80
2019-06-01T14:43:14.367Z,51.70
2019-06-01T14:48:17.814Z,52.10
2019-06-01T14:53:21.261Z,51.50
2019-06-01T14:58:24.686Z,51.40
2019-06-01T15:03:28.126Z,51.60
2019-06-01T15:08:31.589Z,51.70
2019-06-01T15:13:35.034Z,51.70
2019-06-01T15:18:38.500Z,51.80
2019-06-01T15:23:41.917Z,52.20
2019-06-01T15:28:45.345Z,52.20
2019-06-01T15:33:48.783Z,52.20
2019-06-01T15:38:53.546Z,52.20
2019-06-01T15:43:57.112Z,52.70
2019-06-01T15:49:01.820Z,53.30
2019-06-01T15:54:05.435Z,53.90
2019-06-01T15:59:08.913Z,53.80
2019-06-01T16:04:12.359Z,53.70
2019-06-01T16:09:15.810Z,53.60
2019-06-01T16:14:19.283Z,53.60
2019-06-01T16:19:22.768Z,53.70
2019-06-01T16:24:26.187Z,53.50
2019-06-01T16:29:29.625Z,53.50
2019-06-01T16:34:33.053Z,52.90
2019-06-01T16:39:36.505Z,52.60
2019-06-01T16:44:39.937Z,52.40
2019-06-01T16:49:43.367Z,52.40
2019-06-01T16:54:46.822Z,52.50
2019-06-01T16:59:50.248Z,53.10
2019-06-01T17:04:53.696Z,52.80
2019-06-01T17:09:57.165Z,53.10
2019-06-01T17:15:00.932Z,53.30
2019-06-01T17:20:07.343Z,53.40
2019-06-01T17:25:10.790Z,53.10
2019-06-01T17:30:14.250Z,53.60
2019-06-01T17:35:17.723Z,53.50
2019-06-01T17:40:36.291Z,53.60
2019-06-01T17:45:26.346Z,53.60
2019-06-01T17:50:29.831Z,53.70
2019-06-01T17:55:37.036Z,53.90
2019-06-01T18:00:40.485Z,54.00
2019-06-01T18:05:43.940Z,53.80
2019-06-01T18:10:54.323Z,54.40
2019-06-01T18:15:52.512Z,53.80
2019-06-01T18:20:55.941Z,54.10
2019-06-01T18:25:59.386Z,54.30
2019-06-01T18:31:02.826Z,54.40
2019-06-01T18:36:07.453Z,54.30
2019-06-01T18:41:18.288Z,54.30
2019-06-01T18:46:16.171Z,54.30
2019-06-01T18:51:19.763Z,54.30
2019-06-01T18:56:23.253Z,54.30
2019-06-01T19:01:26.715Z,54.20
2019-06-01T19:06:30.189Z,54.20
2019-06-01T19:11:36.162Z,54.30
2019-06-01T19:16:38.775Z,54.30
2019-06-01T19:21:42.245Z,54.10
2019-06-01T19:26:45.686Z,53.90
2019-06-01T19:31:49.136Z,53.90
2019-06-01T19:36:52.622Z,53.80
2019-06-01T19:41:56.128Z,53.80
2019-06-01T19:46:59.618Z,53.90
2019-06-01T19:52:03.099Z,53.90
2019-06-01T19:57:06.543Z,54.00
2019-06-01T20:02:26.109Z,54.00
2019-06-01T20:07:15.251Z,54.00
2019-06-01T20:12:20.400Z,54.10
2019-06-01T20:17:26.342Z,54.00
2019-06-01T20:22:28.885Z,54.00
2019-06-01T20:27:32.362Z,54.00
2019-06-01T20:32:35.801Z,53.90
2019-06-01T20:37:39.217Z,53.90
2019-06-01T20:42:42.657Z,53.80
2019-06-01T20:47:46.114Z,53.80
2019-06-01T20:52:49.573Z,53.80
2019-06-01T20:57:53.047Z,53.80
2019-06-01T21:02:56.505Z,53.70
2019-06-01T21:08:00.055Z,53.70
2019-06-01T21:13:07.518Z,53.60
2019-06-01T21:18:08.608Z,53.70
2019-06-01T21:23:12.417Z,53.60
2019-06-01T21:28:17.679Z,53.50
2019-06-01T21:33:21.724Z,53.50
2019-06-01T21:38:26.206Z,53.40
2019-06-01T21:43:35.086Z,53.40
2019-06-01T21:48:34.718Z,53.40
2019-06-01T21:53:38.215Z,53.30
2019-06-01T21:58:41.618Z,53.30
2019-06-01T22:03:45.093Z,53.20
2019-06-01T22:08:52.707Z,53.10
2019-06-01T22:13:53.726Z,53.10
2019-06-01T22:18:57.214Z,53.00
2019-06-01T22:24:00.647Z,53.00
2019-06-01T22:29:04.099Z,53.60
2019-06-01T22:34:07.528Z,52.90
2019-06-01T22:39:10.983Z,52.90
2019-06-01T22:44:14.461Z,52.80
2019-06-01T22:49:17.912Z,52.90
2019-06-01T22:54:21.388Z,52.90
2019-06-01T22:59:24.874Z,53.00
2019-06-01T23:04:29.334Z,53.10
2019-06-01T23:09:32.799Z,53.20
2019-06-01T23:14:36.246Z,53.20
2019-06-01T23:19:39.712Z,53.20
2019-06-01T23:24:43.186Z,53.10
2019-06-01T23:29:46.633Z,53.10
2019-06-01T23:34:50.095Z,53.10
2019-06-01T23:39:53.574Z,53.00
2019-06-01T23:44:57.004Z,53.60
2019-06-01T23:50:00.457Z,53.10
2019-06-01T23:55:07.328Z,53.00
